createdAt,value
2023-03-29T00:00:24.328Z,99085.03
2023-03-29T00:02:51.205Z,99083.34
2023-03-29T00:05:23.153Z,99083.41
2023-03-29T00:08:04.722Z,99073.94
2023-03-29T00:10:33.756Z,99077.34
2023-03-29T00:13:01.432Z,99071.41
2023-03-29T00:15:28.036Z,99072.28
2023-03-29T00:17:54.667Z,99075.69
2023-03-29T00:20:21.228Z,99073.09
2023-03-29T00:22:47.857Z,99065.41
2023-03-29T00:25:14.457Z,99058.63
2023-03-29T00:27:41.350Z,99054.38
2023-03-29T00:30:10.220Z,99060.41
2023-03-29T00:32:37.393Z,99052.72
2023-03-29T00:35:06.209Z,99053.53
2023-03-29T00:37:33.094Z,99061.13
2023-03-29T00:39:59.860Z,99050.09
2023-03-29T00:42:26.650Z,99047.50
2023-03-29T00:45:07.539Z,99050.88
2023-03-29T00:47:39.366Z,99054.19
2023-03-29T00:50:18.509Z,99058.53
2023-03-29T00:52:56.654Z,99055.09
2023-03-29T00:55:30.060Z,99046.63
2023-03-29T00:57:57.974Z,99047.50
2023-03-29T01:00:31.868Z,99052.59
2023-03-29T01:02:59.938Z,99044.03
2023-03-29T01:05:32.478Z,99049.94
2023-03-29T01:08:05.205Z,99045.63
2023-03-29T01:10:38.819Z,99051.59
2023-03-29T01:13:11.473Z,99051.44
2023-03-29T01:15:42.097Z,99049.66
2023-03-29T01:18:09.861Z,99049.59
2023-03-29T01:21:10.188Z,99041.06
2023-03-29T01:23:58.334Z,99058.88
2023-03-29T01:26:36.412Z,99065.56
2023-03-29T01:29:12.780Z,99060.44
2023-03-29T01:31:50.614Z,99059.56
2023-03-29T01:34:41.013Z,99056.00
2023-03-29T01:37:37.585Z,99059.31
2023-03-29T01:40:06.233Z,99061.00
2023-03-29T01:42:51.731Z,99055.75
2023-03-29T01:45:35.145Z,99059.09
2023-03-29T01:48:09.193Z,99062.41
2023-03-29T01:50:44.403Z,99060.69
2023-03-29T01:53:19.089Z,99060.84
2023-03-29T01:56:05.753Z,99071.88
2023-03-29T01:58:36.480Z,99074.56
2023-03-29T02:01:09.963Z,99072.81
2023-03-29T02:03:42.403Z,99074.31
2023-03-29T02:06:16.350Z,99079.44
2023-03-29T02:08:45.093Z,99077.84
2023-03-29T02:11:11.704Z,99072.59
2023-03-29T02:13:38.365Z,99076.78
2023-03-29T02:16:12.821Z,99078.38
2023-03-29T02:18:45.223Z,99076.63
2023-03-29T02:21:18.247Z,99073.13
2023-03-29T02:23:49.619Z,99071.44
2023-03-29T02:26:17.761Z,99061.22
2023-03-29T02:28:44.396Z,99061.31
2023-03-29T02:31:24.890Z,99062.38
2023-03-29T02:33:57.347Z,99072.56
2023-03-29T02:36:30.229Z,99070.09
2023-03-29T02:39:00.701Z,99065.09
2023-03-29T02:41:28.717Z,99078.63
2023-03-29T02:43:57.067Z,99066.75
2023-03-29T02:46:24.746Z,99076.84
2023-03-29T02:48:54.128Z,99078.38
2023-03-29T02:51:24.235Z,99073.97
2023-03-29T02:54:07.037Z,99071.28
2023-03-29T02:56:44.872Z,99075.56
2023-03-29T02:59:12.540Z,99074.59
2023-03-29T03:01:42.828Z,99066.06
2023-03-29T03:04:10.287Z,99072.03
2023-03-29T03:06:37.820Z,99077.19
2023-03-29T03:09:05.977Z,99081.31
2023-03-29T03:11:33.323Z,99084.59
2023-03-29T03:14:00.131Z,99078.72
2023-03-29T03:16:27.219Z,99084.63
2023-03-29T03:18:54.881Z,99077.81
2023-03-29T03:21:22.443Z,99073.63
2023-03-29T03:23:52.080Z,99077.69
2023-03-29T03:26:18.994Z,99073.38
2023-03-29T03:28:48.480Z,99081.88
2023-03-29T03:31:15.032Z,99075.91
2023-03-29T03:33:41.845Z,99075.91
2023-03-29T03:36:10.283Z,99075.84
2023-03-29T03:38:38.360Z,99074.13
2023-03-29T03:41:07.087Z,99078.38
2023-03-29T03:43:34.346Z,99074.13
2023-03-29T03:46:01.550Z,99075.84
2023-03-29T03:48:28.517Z,99074.94
2023-03-29T03:50:57.331Z,99079.94
2023-03-29T03:53:25.628Z,99073.97
2023-03-29T03:55:56.178Z,99079.88
2023-03-29T03:58:23.173Z,99083.31
2023-03-29T04:00:51.049Z,99073.16
2023-03-29T04:03:18.130Z,99073.91
2023-03-29T04:05:46.132Z,99071.38
2023-03-29T04:08:13.845Z,99070.63
2023-03-29T04:10:41.196Z,99068.25
2023-03-29T04:13:07.787Z,99063.19
2023-03-29T04:15:41.395Z,99062.28
2023-03-29T04:18:08.701Z,99056.31
2023-03-29T04:20:35.345Z,99060.44
2023-03-29T04:23:02.023Z,99057.88
2023-03-29T04:25:28.988Z,99061.28
2023-03-29T04:27:58.560Z,99072.31
2023-03-29T04:30:25.255Z,99079.03
2023-03-29T04:32:52.285Z,99078.97
2023-03-29T04:35:19.069Z,99073.00
2023-03-29T04:37:45.650Z,99073.03
2023-03-29T04:40:14.525Z,99084.88
2023-03-29T04:42:47.773Z,99089.19
2023-03-29T04:45:18.192Z,99088.28
2023-03-29T04:47:45.791Z,99093.47
2023-03-29T04:50:13.914Z,99090.03
2023-03-29T04:52:45.537Z,99088.31
2023-03-29T04:55:12.828Z,99090.84
2023-03-29T04:57:39.350Z,99087.44
2023-03-29T05:00:15.375Z,99092.56
2023-03-29T05:02:45.970Z,99091.66
2023-03-29T05:05:13.945Z,99087.41
2023-03-29T05:07:41.048Z,99087.44
2023-03-29T05:10:08.560Z,99094.16
2023-03-29T05:12:35.340Z,99088.47
2023-03-29T05:15:02.361Z,99087.72
2023-03-29T05:17:29.052Z,99078.47
2023-03-29T05:19:55.715Z,99081.19
2023-03-29T05:22:23.492Z,99084.63
2023-03-29T05:24:51.505Z,99082.84
2023-03-29T05:27:18.494Z,99080.31
2023-03-29T05:29:45.066Z,99084.50
2023-03-29T05:32:13.569Z,99088.81
2023-03-29T05:34:40.315Z,99084.56
2023-03-29T05:37:07.275Z,99088.00
2023-03-29T05:39:35.206Z,99090.41
2023-03-29T05:42:04.575Z,99092.06
2023-03-29T05:44:31.338Z,99094.63
2023-03-29T05:46:58.026Z,99099.63
2023-03-29T05:49:24.512Z,99103.78
2023-03-29T05:51:53.842Z,99102.19
2023-03-29T05:54:20.681Z,99101.38
2023-03-29T05:56:50.330Z,99105.72
2023-03-29T05:59:17.785Z,99102.41
2023-03-29T06:01:47.008Z,99097.50
2023-03-29T06:04:14.525Z,99098.44
2023-03-29T06:06:41.898Z,99098.63
2023-03-29T06:09:08.509Z,99098.72
2023-03-29T06:11:35.070Z,99098.06
2023-03-29T06:14:02.562Z,99099.25
2023-03-29T06:16:29.142Z,99095.38
2023-03-29T06:18:55.760Z,99089.75
2023-03-29T06:21:22.966Z,99086.66
2023-03-29T06:23:49.485Z,99090.44
2023-03-29T06:26:16.431Z,99086.63
2023-03-29T06:28:43.036Z,99087.91
2023-03-29T06:31:10.190Z,99090.03
2023-03-29T06:33:38.136Z,99091.28
2023-03-29T06:36:05.112Z,99088.16
2023-03-29T06:38:31.866Z,99088.50
2023-03-29T06:41:07.477Z,99089.59
2023-03-29T06:43:34.904Z,99089.88
2023-03-29T06:46:02.101Z,99097.69
2023-03-29T06:48:28.954Z,99098.69
2023-03-29T06:50:55.672Z,99111.53
2023-03-29T06:53:22.522Z,99112.56
2023-03-29T06:55:51.938Z,99111.69
2023-03-29T06:58:18.563Z,99111.00
2023-03-29T07:00:45.940Z,99117.03
2023-03-29T07:03:20.054Z,99116.25
2023-03-29T07:05:47.651Z,99114.56
2023-03-29T07:08:16.384Z,99114.56
2023-03-29T07:10:47.551Z,99115.56
2023-03-29T07:13:15.646Z,99114.75
2023-03-29T07:15:45.415Z,99119.00
2023-03-29T07:18:14.924Z,99109.66
2023-03-29T07:20:42.659Z,99110.53
2023-03-29T07:23:10.052Z,99115.69
2023-03-29T07:25:37.451Z,99118.25
2023-03-29T07:28:04.659Z,99118.25
2023-03-29T07:30:32.577Z,99121.66
2023-03-29T07:32:59.517Z,99119.97
2023-03-29T07:35:27.013Z,99123.38
2023-03-29T07:37:55.680Z,99121.69
2023-03-29T07:40:23.953Z,99111.41
2023-03-29T07:42:54.316Z,99112.28
2023-03-29T07:45:26.535Z,99115.69
2023-03-29T07:47:57.260Z,99119.97
2023-03-29T07:50:24.572Z,99114.81
2023-03-29T07:52:53.800Z,99115.69
2023-03-29T07:55:22.202Z,99107.13
2023-03-29T07:57:49.957Z,99112.22
2023-03-29T08:00:17.399Z,99115.66
2023-03-29T08:02:49.803Z,99106.22
2023-03-29T08:05:26.179Z,99107.91
2023-03-29T08:08:01.083Z,99101.88
2023-03-29T08:10:28.520Z,99100.94
2023-03-29T08:12:55.708Z,99096.56
2023-03-29T08:15:22.978Z,99093.16
2023-03-29T08:17:49.554Z,99100.88
2023-03-29T08:20:16.630Z,99085.34
2023-03-29T08:22:43.738Z,99080.13
2023-03-29T08:25:11.651Z,99079.16
2023-03-29T08:27:38.946Z,99086.00
2023-03-29T08:30:08.159Z,99077.44
2023-03-29T08:32:34.875Z,99081.72
2023-03-29T08:35:03.915Z,99077.34
2023-03-29T08:37:31.873Z,99073.78
2023-03-29T08:39:58.675Z,99078.91
2023-03-29T08:42:41.004Z,99072.13
2023-03-29T08:45:40.283Z,99075.44
2023-03-29T08:48:28.637Z,99067.66
2023-03-29T08:51:00.658Z,99067.69
2023-03-29T08:53:41.534Z,99070.28
2023-03-29T08:56:14.356Z,99067.72
2023-03-29T08:58:42.321Z,99067.69
2023-03-29T09:01:11.385Z,99068.47
2023-03-29T09:03:48.022Z,99063.25
2023-03-29T09:06:16.580Z,99060.59
2023-03-29T09:08:48.234Z,99064.75
2023-03-29T09:11:20.707Z,99053.50
2023-03-29T09:14:19.430Z,99062.03
2023-03-29T09:16:46.626Z,99061.97
2023-03-29T09:19:39.128Z,99054.22
2023-03-29T09:22:24.243Z,99057.63
2023-03-29T09:25:03.445Z,99048.91
2023-03-29T09:27:46.006Z,99047.94
2023-03-29T09:30:21.429Z,99038.41
2023-03-29T09:33:15.562Z,99039.25
2023-03-29T09:35:57.532Z,99043.44
2023-03-29T09:38:24.209Z,99046.09
2023-03-29T09:40:57.861Z,99047.00
2023-03-29T09:43:39.764Z,99039.25
2023-03-29T09:46:25.614Z,99039.25
2023-03-29T09:48:54.727Z,99046.13
2023-03-29T09:51:27.708Z,99040.16
2023-03-29T09:53:57.861Z,99029.78
2023-03-29T09:56:24.475Z,99029.78
2023-03-29T09:58:51.358Z,99027.22
2023-03-29T10:01:19.860Z,99021.06
2023-03-29T10:03:52.371Z,99022.72
2023-03-29T10:06:21.587Z,99025.25
2023-03-29T10:08:52.863Z,99027.75
2023-03-29T10:11:28.906Z,99030.22
2023-03-29T10:14:00.560Z,99016.47
2023-03-29T10:16:36.499Z,99013.88
2023-03-29T10:19:33.028Z,99010.38
2023-03-29T10:22:02.451Z,99006.00
2023-03-29T10:24:29.004Z,99007.72
2023-03-29T10:27:02.613Z,99006.78
2023-03-29T10:29:37.197Z,99000.66
2023-03-29T10:32:14.588Z,98997.13
2023-03-29T10:34:41.588Z,99000.66
2023-03-29T10:37:10.578Z,98992.03
2023-03-29T10:39:39.404Z,98991.97
2023-03-29T10:42:08.909Z,98990.28
2023-03-29T10:44:37.590Z,98997.09
2023-03-29T10:47:16.902Z,98994.38
2023-03-29T10:49:56.475Z,98975.41
2023-03-29T10:52:23.680Z,98982.28
2023-03-29T10:54:52.668Z,98981.38
2023-03-29T10:57:52.844Z,98960.84
2023-03-29T11:00:27.017Z,98959.00
2023-03-29T11:03:21.853Z,98946.72
2023-03-29T11:06:04.423Z,98938.97
2023-03-29T11:08:57.816Z,98941.34
2023-03-29T11:11:36.792Z,98938.69
2023-03-29T11:14:22.258Z,98927.50
2023-03-29T11:17:07.544Z,98926.53
2023-03-29T11:19:33.936Z,98931.69
2023-03-29T11:22:11.574Z,98931.69
2023-03-29T11:25:06.621Z,98933.16
2023-03-29T11:27:41.835Z,98934.78
2023-03-29T11:30:19.480Z,98928.84
2023-03-29T11:40:39.339Z,98913.00
2023-03-29T11:43:15.375Z,98905.09
2023-03-29T11:45:49.824Z,98912.78
2023-03-29T11:48:24.298Z,98908.34
2023-03-29T11:51:11.340Z,98912.50
2023-03-29T11:54:01.893Z,98906.22
2023-03-29T11:56:47.480Z,98905.13
2023-03-29T11:59:53.278Z,98896.44
2023-03-29T12:02:29.331Z,98904.03
2023-03-29T12:05:03.137Z,98903.94
2023-03-29T12:07:37.698Z,98895.16
2023-03-29T12:10:16.642Z,98893.25
2023-03-29T12:12:47.679Z,98895.66
2023-03-29T12:15:24.917Z,98893.03
2023-03-29T12:18:32.926Z,98886.16
2023-03-29T12:21:07.067Z,98897.41
2023-03-29T12:23:34.119Z,98884.44
2023-03-29T12:26:17.282Z,98887.06
2023-03-29T12:28:56.475Z,98886.91
2023-03-29T12:31:26.763Z,98880.63
2023-03-29T12:33:56.091Z,98868.34
2023-03-29T12:36:41.626Z,98865.69
2023-03-29T12:39:21.585Z,98865.69
2023-03-29T12:41:53.655Z,98849.03
2023-03-29T12:44:27.333Z,98847.91
2023-03-29T12:46:57.182Z,98847.94
2023-03-29T12:49:32.740Z,98852.97
2023-03-29T12:52:01.836Z,98843.66
2023-03-29T12:54:32.380Z,98849.75
2023-03-29T12:57:20.411Z,98855.41
2023-03-29T12:59:49.476Z,98844.22
2023-03-29T13:02:16.871Z,98844.25
2023-03-29T13:04:47.086Z,98838.25
2023-03-29T13:07:46.432Z,98845.28
2023-03-29T13:10:36.731Z,98835.19
2023-03-29T13:13:21.245Z,98832.75
2023-03-29T13:15:48.138Z,98833.00
2023-03-29T13:18:26.482Z,98830.41
2023-03-29T13:21:14.529Z,98826.13
2023-03-29T13:24:07.424Z,98828.88
2023-03-29T13:27:02.233Z,98831.41
2023-03-29T13:29:54.003Z,98816.66
2023-03-29T13:32:43.771Z,98825.47
2023-03-29T13:35:21.084Z,98813.31
2023-03-29T13:38:21.842Z,98807.38
2023-03-29T13:40:52.027Z,98815.94
2023-03-29T13:43:21.370Z,98809.16
2023-03-29T13:45:59.907Z,98803.91
2023-03-29T13:48:47.345Z,98804.66
2023-03-29T13:51:21.845Z,98804.03
2023-03-29T13:54:06.483Z,98805.59
2023-03-29T13:56:40.223Z,98802.28
2023-03-29T13:59:20.049Z,98798.91
2023-03-29T14:01:58.192Z,98801.53
2023-03-29T14:04:28.522Z,98796.50
2023-03-29T14:06:57.027Z,98800.84
2023-03-29T14:09:28.655Z,98806.94
2023-03-29T14:11:56.568Z,98804.47
2023-03-29T14:14:26.545Z,98804.19
2023-03-29T14:16:55.519Z,98798.97
2023-03-29T14:19:31.125Z,98788.56
2023-03-29T14:22:00.545Z,98790.25
2023-03-29T14:24:34.976Z,98789.22
2023-03-29T14:27:06.716Z,98792.88
2023-03-29T14:29:35.023Z,98786.25
2023-03-29T14:32:19.611Z,98782.75
2023-03-29T14:34:50.956Z,98787.19
2023-03-29T14:37:23.089Z,98782.56
2023-03-29T14:39:50.661Z,98774.59
2023-03-29T14:42:25.955Z,98770.31
2023-03-29T14:45:05.156Z,98774.94
2023-03-29T14:47:33.532Z,98772.41
2023-03-29T14:50:01.805Z,98769.03
2023-03-29T14:52:30.502Z,98757.06
2023-03-29T14:55:00.574Z,98761.31
2023-03-29T14:57:32.924Z,98766.22
2023-03-29T15:00:02.038Z,98754.25
2023-03-29T15:02:32.122Z,98751.47
2023-03-29T15:05:00.171Z,98751.66
2023-03-29T15:07:28.434Z,98757.75
2023-03-29T15:09:57.351Z,98746.47
2023-03-29T15:12:24.403Z,98749.91
2023-03-29T15:14:52.930Z,98743.84
2023-03-29T15:17:50.922Z,98744.56
2023-03-29T15:20:26.106Z,98741.13
2023-03-29T15:22:57.803Z,98736.91
2023-03-29T15:25:28.348Z,98733.56
2023-03-29T15:28:01.869Z,98731.69
2023-03-29T15:30:34.545Z,98735.97
2023-03-29T15:33:22.076Z,98725.91
2023-03-29T15:35:53.797Z,98728.41
2023-03-29T15:38:27.491Z,98717.34
2023-03-29T15:41:01.386Z,98721.56
2023-03-29T15:43:28.401Z,98711.38
2023-03-29T15:45:55.060Z,98723.72
2023-03-29T15:48:25.784Z,98715.22
2023-03-29T15:50:53.237Z,98710.00
2023-03-29T15:53:23.785Z,98715.09
2023-03-29T15:55:53.188Z,98718.63
2023-03-29T15:58:27.843Z,98713.63
2023-03-29T16:00:59.329Z,98716.25
2023-03-29T16:03:27.455Z,98715.47
2023-03-29T16:05:57.992Z,98724.19
2023-03-29T16:08:25.361Z,98720.03
2023-03-29T16:10:52.221Z,98718.53
2023-03-29T16:13:19.028Z,98709.22
2023-03-29T16:15:46.067Z,98719.41
2023-03-29T16:18:12.699Z,98716.75
2023-03-29T16:20:39.749Z,98721.03
2023-03-29T16:23:11.518Z,98721.97
2023-03-29T16:25:40.187Z,98723.69
2023-03-29T16:28:08.578Z,98729.81
2023-03-29T16:30:37.488Z,98722.09
2023-03-29T16:33:08.363Z,98721.44
2023-03-29T16:35:40.152Z,98713.16
2023-03-29T16:38:07.921Z,98718.50
2023-03-29T16:40:35.055Z,98717.84
2023-03-29T16:43:02.780Z,98718.78
2023-03-29T16:45:29.684Z,98708.44
2023-03-29T16:47:57.052Z,98715.38
2023-03-29T16:50:23.894Z,98712.88
2023-03-29T16:52:53.850Z,98711.97
2023-03-29T16:55:20.646Z,98718.97
2023-03-29T16:57:48.957Z,98719.97
2023-03-29T17:00:19.614Z,98720.91
2023-03-29T17:02:49.814Z,98708.09
2023-03-29T17:05:17.914Z,98715.06
2023-03-29T17:07:45.078Z,98713.31
2023-03-29T17:10:12.606Z,98716.78
2023-03-29T17:12:39.530Z,98714.31
2023-03-29T17:15:07.806Z,98709.97
2023-03-29T17:17:35.154Z,98718.50
2023-03-29T17:20:02.040Z,98718.50
2023-03-29T17:22:28.773Z,98721.31
2023-03-29T17:24:55.477Z,98723.00
2023-03-29T17:27:22.113Z,98717.03
2023-03-29T17:29:48.858Z,98711.84
2023-03-29T17:32:15.716Z,98720.41
2023-03-29T17:34:42.409Z,98718.72
2023-03-29T17:37:09.768Z,98717.84
2023-03-29T17:39:37.861Z,98723.03
2023-03-29T17:42:05.684Z,98728.16
2023-03-29T17:44:33.470Z,98726.66
2023-03-29T17:47:01.136Z,98724.81
2023-03-29T17:49:28.212Z,98728.38
2023-03-29T17:51:54.998Z,98736.19
2023-03-29T17:54:21.640Z,98730.28
2023-03-29T17:56:48.983Z,98733.72
2023-03-29T17:59:16.010Z,98733.84
2023-03-29T18:01:43.427Z,98733.00
2023-03-29T18:04:10.199Z,98731.31
2023-03-29T18:06:36.949Z,98737.38
2023-03-29T18:09:04.469Z,98751.16
2023-03-29T18:11:31.784Z,98743.34
2023-03-29T18:13:59.762Z,98745.88
2023-03-29T18:16:28.948Z,98748.47
2023-03-29T18:18:55.862Z,98748.50
2023-03-29T18:21:22.744Z,98739.09
2023-03-29T18:23:53.818Z,98745.94
2023-03-29T18:26:22.902Z,98744.13
2023-03-29T18:28:50.741Z,98757.91
2023-03-29T18:31:17.422Z,98763.00
2023-03-29T18:33:44.080Z,98753.66
2023-03-29T18:36:13.216Z,98756.31
2023-03-29T18:38:40.749Z,98764.78
2023-03-29T18:41:08.677Z,98766.44
2023-03-29T18:43:36.030Z,98757.75
2023-03-29T18:46:06.201Z,98763.03
2023-03-29T18:48:38.947Z,98761.53
2023-03-29T18:51:07.549Z,98768.53
2023-03-29T18:53:38.780Z,98766.81
2023-03-29T18:56:06.650Z,98775.56
2023-03-29T18:58:33.892Z,98765.41
2023-03-29T19:01:02.956Z,98776.63
2023-03-29T19:03:30.562Z,98769.81
2023-03-29T19:05:57.357Z,98774.06
2023-03-29T19:08:26.391Z,98778.44
2023-03-29T19:11:00.517Z,98775.06
2023-03-29T19:13:27.318Z,98781.94
2023-03-29T19:15:53.997Z,98780.31
2023-03-29T19:18:21.123Z,98782.91
2023-03-29T19:20:54.305Z,98787.25
2023-03-29T19:23:28.454Z,98796.81
2023-03-29T19:26:00.665Z,98782.94
2023-03-29T19:28:27.858Z,98790.84
2023-03-29T19:30:55.976Z,98790.91
2023-03-29T19:33:22.686Z,98790.06
2023-03-29T19:35:52.701Z,98779.84
2023-03-29T19:38:20.284Z,98779.03
2023-03-29T19:40:48.762Z,98775.59
2023-03-29T19:43:16.904Z,98777.31
2023-03-29T19:45:48.936Z,98769.66
2023-03-29T19:48:22.488Z,98767.09
2023-03-29T19:50:50.634Z,98768.75
2023-03-29T19:53:17.425Z,98763.66
2023-03-29T19:55:45.406Z,98766.31
2023-03-29T19:58:12.765Z,98762.88
2023-03-29T20:00:39.630Z,98763.75
2023-03-29T20:03:10.404Z,98768.13
2023-03-29T20:05:40.276Z,98764.66
2023-03-29T20:08:07.493Z,98769.03
2023-03-29T20:10:34.751Z,98763.84
2023-03-29T20:13:01.969Z,98767.25
2023-03-29T20:15:28.752Z,98768.84
2023-03-29T20:17:59.433Z,98769.63
2023-03-29T20:20:27.437Z,98771.41
2023-03-29T20:22:58.560Z,98761.94
2023-03-29T20:25:25.997Z,98764.56
2023-03-29T20:27:53.373Z,98766.22
2023-03-29T20:30:20.370Z,98765.34
2023-03-29T20:32:47.356Z,98754.28
2023-03-29T20:35:14.162Z,98752.41
2023-03-29T20:37:41.185Z,98758.44
2023-03-29T20:40:08.711Z,98747.31
2023-03-29T20:42:38.290Z,98747.44
2023-03-29T20:45:05.792Z,98745.75
2023-03-29T20:47:32.446Z,98748.41
2023-03-29T20:50:03.515Z,98751.84
2023-03-29T20:52:30.764Z,98750.22
2023-03-29T20:54:57.467Z,98749.47
2023-03-29T20:57:24.595Z,98749.53
2023-03-29T20:59:51.312Z,98747.00
2023-03-29T21:02:22.969Z,98747.88
2023-03-29T21:04:53.974Z,98747.94
2023-03-29T21:07:23.958Z,98742.84
2023-03-29T21:09:50.660Z,98745.56
2023-03-29T21:12:20.205Z,98745.66
2023-03-29T21:14:47.561Z,98740.56
2023-03-29T21:17:14.237Z,98744.97
2023-03-29T21:19:41.472Z,98744.97
2023-03-29T21:22:09.844Z,98738.16
2023-03-29T21:24:36.658Z,98738.19
2023-03-29T21:27:03.415Z,98737.41
2023-03-29T21:29:30.102Z,98738.38
2023-03-29T21:31:57.159Z,98739.22
2023-03-29T21:34:25.200Z,98744.47
2023-03-29T21:36:51.829Z,98739.34
2023-03-29T21:39:18.458Z,98736.84
2023-03-29T21:41:45.061Z,98743.72
2023-03-29T21:44:11.803Z,98745.44
2023-03-29T21:46:38.629Z,98750.69
2023-03-29T21:49:05.603Z,98748.94
2023-03-29T21:51:32.816Z,98754.16
2023-03-29T21:53:59.536Z,98747.38
2023-03-29T21:56:26.456Z,98738.78
2023-03-29T21:58:53.124Z,98739.59
2023-03-29T22:01:19.765Z,98742.09
2023-03-29T22:03:46.767Z,98736.09
2023-03-29T22:06:14.505Z,98733.50
2023-03-29T22:08:41.161Z,98743.81
2023-03-29T22:11:11.091Z,98736.91
2023-03-29T22:13:37.916Z,98733.50
2023-03-29T22:16:05.621Z,98728.31
2023-03-29T22:18:44.585Z,98736.88
2023-03-29T22:21:14.547Z,98729.03
2023-03-29T22:23:53.679Z,98723.91
2023-03-29T22:26:23.395Z,98722.16
2023-03-29T22:28:52.958Z,98730.66
2023-03-29T22:31:21.922Z,98722.97
2023-03-29T22:33:49.053Z,98725.56
2023-03-29T22:36:17.316Z,98725.59
2023-03-29T22:38:45.451Z,98730.00
2023-03-29T22:41:13.159Z,98725.81
2023-03-29T22:43:39.866Z,98728.38
2023-03-29T22:46:09.357Z,98718.81
2023-03-29T22:48:36.275Z,98713.75
2023-03-29T22:51:03.611Z,98720.59
2023-03-29T22:53:30.606Z,98710.28
2023-03-29T22:55:57.304Z,98711.13
2023-03-29T22:58:24.212Z,98704.25
2023-03-29T23:00:51.617Z,98703.31
2023-03-29T23:03:18.340Z,98696.47
2023-03-29T23:05:52.657Z,98695.66
2023-03-29T23:08:19.544Z,98690.56
2023-03-29T23:10:47.126Z,98694.91
2023-03-29T23:13:15.744Z,98688.00
2023-03-29T23:15:45.776Z,98687.13
2023-03-29T23:18:13.173Z,98688.81
2023-03-29T23:20:40.830Z,98686.28
2023-03-29T23:23:07.761Z,98689.75
2023-03-29T23:25:35.339Z,98684.63
2023-03-29T23:28:02.727Z,98685.50
2023-03-29T23:30:32.437Z,98686.31
2023-03-29T23:33:00.292Z,98678.66
2023-03-29T23:35:27.061Z,98682.97
2023-03-29T23:37:55.992Z,98677.81
2023-03-29T23:40:22.687Z,98671.88
2023-03-29T23:42:49.276Z,98676.13
2023-03-29T23:45:20.851Z,98676.16
2023-03-29T23:47:47.576Z,98671.88
2023-03-29T23:50:18.193Z,98677.06
2023-03-29T23:52:46.719Z,98675.34
2023-03-29T23:55:14.695Z,98671.91
2023-03-29T23:57:41.732Z,98666.78
